sensor_id;sensor_type;location;lat;lon;timestamp;P1;durP1;ratioP1;P2;durP2;ratioP2
75437;SDS011;64015;49.392;15.582;2022-10-31T00:01:56;19.00;;;8.23;;
75437;SDS011;64015;49.392;15.582;2022-10-31T00:04:22;17.38;;;8.43;;
75437;SDS011;64015;49.392;15.582;2022-10-31T00:06:47;16.40;;;8.07;;
75437;SDS011;64015;49.392;15.582;2022-10-31T00:09:13;15.90;;;8.75;;
75437;SDS011;64015;49.392;15.582;2022-10-31T00:11:42;12.80;;;8.07;;
75437;SDS011;64015;49.392;15.582;2022-10-31T00:14:08;17.20;;;9.70;;
75437;SDS011;64015;49.392;15.582;2022-10-31T00:16:33;17.80;;;8.70;;
75437;SDS011;64015;49.392;15.582;2022-10-31T00:19:00;19.08;;;9.00;;
75437;SDS011;64015;49.392;15.582;2022-10-31T00:21:28;17.63;;;8.02;;
75437;SDS011;64015;49.392;15.582;2022-10-31T00:23:54;17.27;;;8.25;;
75437;SDS011;64015;49.392;15.582;2022-10-31T00:26:20;16.65;;;8.57;;
75437;SDS011;64015;49.392;15.582;2022-10-31T00:28:45;17.75;;;8.93;;
75437;SDS011;64015;49.392;15.582;2022-10-31T00:31:11;15.02;;;8.38;;
75437;SDS011;64015;49.392;15.582;2022-10-31T00:33:38;14.75;;;7.95;;
75437;SDS011;64015;49.392;15.582;2022-10-31T00:36:05;15.07;;;8.68;;
75437;SDS011;64015;49.392;15.582;2022-10-31T00:40:58;13.80;;;7.30;;
75437;SDS011;64015;49.392;15.582;2022-10-31T00:43:23;15.15;;;7.78;;
75437;SDS011;64015;49.392;15.582;2022-10-31T00:45:51;18.00;;;8.88;;
75437;SDS011;64015;49.392;15.582;2022-10-31T00:48:16;20.90;;;8.43;;
75437;SDS011;64015;49.392;15.582;2022-10-31T00:50:42;15.80;;;8.32;;
75437;SDS011;64015;49.392;15.582;2022-10-31T00:53:08;17.65;;;9.38;;
75437;SDS011;64015;49.392;15.582;2022-10-31T00:55:33;16.85;;;9.15;;
75437;SDS011;64015;49.392;15.582;2022-10-31T00:57:59;18.75;;;10.73;;
75437;SDS011;64015;49.392;15.582;2022-10-31T01:00:24;19.17;;;9.75;;
75437;SDS011;64015;49.392;15.582;2022-10-31T01:02:50;16.38;;;8.52;;
75437;SDS011;64015;49.392;15.582;2022-10-31T01:05:16;19.83;;;9.02;;
75437;SDS011;64015;49.392;15.582;2022-10-31T01:07:41;17.08;;;9.40;;
75437;SDS011;64015;49.392;15.582;2022-10-31T01:10:07;15.88;;;8.75;;
75437;SDS011;64015;49.392;15.582;2022-10-31T01:12:37;16.30;;;8.65;;
75437;SDS011;64015;49.392;15.582;2022-10-31T01:17:33;17.58;;;8.27;;
75437;SDS011;64015;49.392;15.582;2022-10-31T01:19:59;13.30;;;6.43;;
75437;SDS011;64015;49.392;15.582;2022-10-31T01:22:43;15.77;;;8.00;;
75437;SDS011;64015;49.392;15.582;2022-10-31T01:25:08;15.65;;;8.75;;
75437;SDS011;64015;49.392;15.582;2022-10-31T01:27:35;18.20;;;8.57;;
75437;SDS011;64015;49.392;15.582;2022-10-31T01:30:00;16.85;;;7.95;;
75437;SDS011;64015;49.392;15.582;2022-10-31T01:32:26;12.48;;;8.60;;
75437;SDS011;64015;49.392;15.582;2022-10-31T01:34:54;16.83;;;7.68;;
75437;SDS011;64015;49.392;15.582;2022-10-31T01:37:20;15.57;;;8.80;;
75437;SDS011;64015;49.392;15.582;2022-10-31T01:39:45;14.02;;;8.63;;
75437;SDS011;64015;49.392;15.582;2022-10-31T01:42:18;17.23;;;8.20;;
75437;SDS011;64015;49.392;15.582;2022-10-31T01:44:50;20.70;;;9.07;;
75437;SDS011;64015;49.392;15.582;2022-10-31T01:47:33;14.13;;;7.72;;
75437;SDS011;64015;49.392;15.582;2022-10-31T01:50:12;14.45;;;8.38;;
75437;SDS011;64015;49.392;15.582;2022-10-31T01:52:45;12.88;;;8.23;;
75437;SDS011;64015;49.392;15.582;2022-10-31T01:55:15;16.17;;;7.82;;
75437;SDS011;64015;49.392;15.582;2022-10-31T01:57:47;12.25;;;7.53;;
75437;SDS011;64015;49.392;15.582;2022-10-31T02:00:15;15.70;;;9.43;;
75437;SDS011;64015;49.392;15.582;2022-10-31T02:02:42;13.52;;;7.63;;
75437;SDS011;64015;49.392;15.582;2022-10-31T02:05:11;17.75;;;8.27;;
75437;SDS011;64015;49.392;15.582;2022-10-31T02:07:42;18.35;;;8.80;;
75437;SDS011;64015;49.392;15.582;2022-10-31T02:10:13;14.55;;;7.57;;
75437;SDS011;64015;49.392;15.582;2022-10-31T02:12:40;15.23;;;7.50;;
75437;SDS011;64015;49.392;15.582;2022-10-31T02:15:06;15.00;;;7.32;;
75437;SDS011;64015;49.392;15.582;2022-10-31T02:17:33;15.60;;;8.27;;
75437;SDS011;64015;49.392;15.582;2022-10-31T02:20:05;15.60;;;6.78;;
75437;SDS011;64015;49.392;15.582;2022-10-31T02:22:49;17.85;;;7.43;;
75437;SDS011;64015;49.392;15.582;2022-10-31T02:28:15;15.93;;;7.82;;
75437;SDS011;64015;49.392;15.582;2022-10-31T02:33:41;19.55;;;9.00;;
75437;SDS011;64015;49.392;15.582;2022-10-31T02:36:23;20.08;;;8.32;;
75437;SDS011;64015;49.392;15.582;2022-10-31T02:47:19;16.67;;;8.00;;
75437;SDS011;64015;49.392;15.582;2022-10-31T02:52:42;13.15;;;7.55;;
75437;SDS011;64015;49.392;15.582;2022-10-31T02:57:57;15.73;;;7.65;;
75437;SDS011;64015;49.392;15.582;2022-10-31T03:00:28;15.32;;;7.70;;
75437;SDS011;64015;49.392;15.582;2022-10-31T03:05:52;16.10;;;7.78;;
75437;SDS011;64015;49.392;15.582;2022-10-31T03:08:50;15.25;;;7.80;;
75437;SDS011;64015;49.392;15.582;2022-10-31T03:11:28;13.70;;;7.78;;
75437;SDS011;64015;49.392;15.582;2022-10-31T03:14:00;12.18;;;7.18;;
75437;SDS011;64015;49.392;15.582;2022-10-31T03:19:06;16.92;;;7.72;;
75437;SDS011;64015;49.392;15.582;2022-10-31T03:24:10;13.65;;;7.40;;
75437;SDS011;64015;49.392;15.582;2022-10-31T03:26:39;19.02;;;8.35;;
75437;SDS011;64015;49.392;15.582;2022-10-31T03:29:09;14.35;;;7.65;;
75437;SDS011;64015;49.392;15.582;2022-10-31T03:31:46;12.60;;;7.05;;
75437;SDS011;64015;49.392;15.582;2022-10-31T03:34:15;12.77;;;6.90;;
75437;SDS011;64015;49.392;15.582;2022-10-31T03:36:43;12.18;;;6.97;;
75437;SDS011;64015;49.392;15.582;2022-10-31T03:39:11;12.40;;;7.22;;
75437;SDS011;64015;49.392;15.582;2022-10-31T03:41:43;13.95;;;7.65;;
75437;SDS011;64015;49.392;15.582;2022-10-31T03:44:12;14.27;;;7.10;;
75437;SDS011;64015;49.392;15.582;2022-10-31T03:46:41;14.75;;;7.32;;
75437;SDS011;64015;49.392;15.582;2022-10-31T03:49:08;13.38;;;7.88;;
75437;SDS011;64015;49.392;15.582;2022-10-31T03:51:39;17.98;;;7.40;;
75437;SDS011;64015;49.392;15.582;2022-10-31T03:54:34;13.68;;;7.00;;
75437;SDS011;64015;49.392;15.582;2022-10-31T03:57:14;16.25;;;7.97;;
75437;SDS011;64015;49.392;15.582;2022-10-31T03:59:51;12.70;;;7.38;;
75437;SDS011;64015;49.392;15.582;2022-10-31T04:02:26;15.00;;;8.63;;
75437;SDS011;64015;49.392;15.582;2022-10-31T04:04:55;14.75;;;7.20;;
75437;SDS011;64015;49.392;15.582;2022-10-31T04:07:21;13.27;;;6.93;;
75437;SDS011;64015;49.392;15.582;2022-10-31T04:09:50;15.98;;;6.80;;
75437;SDS011;64015;49.392;15.582;2022-10-31T04:12:17;17.98;;;7.63;;
75437;SDS011;64015;49.392;15.582;2022-10-31T04:14:45;16.52;;;7.45;;
75437;SDS011;64015;49.392;15.582;2022-10-31T04:17:13;14.82;;;7.70;;
75437;SDS011;64015;49.392;15.582;2022-10-31T04:19:42;12.38;;;6.75;;
75437;SDS011;64015;49.392;15.582;2022-10-31T04:22:08;16.00;;;6.88;;
75437;SDS011;64015;49.392;15.582;2022-10-31T04:24:34;13.50;;;6.88;;
75437;SDS011;64015;49.392;15.582;2022-10-31T04:26:59;14.38;;;7.38;;
75437;SDS011;64015;49.392;15.582;2022-10-31T04:29:25;14.88;;;7.05;;
75437;SDS011;64015;49.392;15.582;2022-10-31T04:31:50;14.45;;;7.35;;
75437;SDS011;64015;49.392;15.582;2022-10-31T04:34:16;15.45;;;7.72;;
75437;SDS011;64015;49.392;15.582;2022-10-31T04:36:41;12.35;;;6.65;;
75437;SDS011;64015;49.392;15.582;2022-10-31T04:39:07;15.10;;;7.63;;
75437;SDS011;64015;49.392;15.582;2022-10-31T04:41:32;15.50;;;7.32;;
75437;SDS011;64015;49.392;15.582;2022-10-31T04:43:58;18.00;;;8.43;;
75437;SDS011;64015;49.392;15.582;2022-10-31T04:46:23;13.45;;;7.40;;
75437;SDS011;64015;49.392;15.582;2022-10-31T04:48:49;13.70;;;6.88;;
75437;SDS011;64015;49.392;15.582;2022-10-31T04:51:14;17.92;;;7.93;;
75437;SDS011;64015;49.392;15.582;2022-10-31T04:53:40;15.77;;;7.78;;
75437;SDS011;64015;49.392;15.582;2022-10-31T04:56:05;13.07;;;7.05;;
75437;SDS011;64015;49.392;15.582;2022-10-31T04:58:31;14.23;;;7.82;;
75437;SDS011;64015;49.392;15.582;2022-10-31T05:00:57;12.25;;;6.53;;
75437;SDS011;64015;49.392;15.582;2022-10-31T05:03:25;16.45;;;8.50;;
75437;SDS011;64015;49.392;15.582;2022-10-31T05:05:50;11.90;;;7.07;;
75437;SDS011;64015;49.392;15.582;2022-10-31T05:08:16;15.30;;;7.18;;
75437;SDS011;64015;49.392;15.582;2022-10-31T05:10:41;13.82;;;7.32;;
75437;SDS011;64015;49.392;15.582;2022-10-31T05:13:07;14.15;;;7.75;;
75437;SDS011;64015;49.392;15.582;2022-10-31T05:15:33;13.43;;;7.78;;
75437;SDS011;64015;49.392;15.582;2022-10-31T05:17:59;15.52;;;7.88;;
75437;SDS011;64015;49.392;15.582;2022-10-31T05:20:26;14.43;;;6.90;;
75437;SDS011;64015;49.392;15.582;2022-10-31T05:22:54;13.60;;;7.53;;
75437;SDS011;64015;49.392;15.582;2022-10-31T05:27:47;13.95;;;6.72;;
75437;SDS011;64015;49.392;15.582;2022-10-31T05:30:15;15.40;;;7.53;;
75437;SDS011;64015;49.392;15.582;2022-10-31T05:32:44;13.18;;;7.88;;
75437;SDS011;64015;49.392;15.582;2022-10-31T05:35:12;17.50;;;8.05;;
75437;SDS011;64015;49.392;15.582;2022-10-31T05:37:41;13.98;;;6.78;;
75437;SDS011;64015;49.392;15.582;2022-10-31T05:40:08;16.35;;;7.00;;
75437;SDS011;64015;49.392;15.582;2022-10-31T05:42:35;14.65;;;7.43;;
75437;SDS011;64015;49.392;15.582;2022-10-31T05:45:01;14.15;;;8.70;;
75437;SDS011;64015;49.392;15.582;2022-10-31T05:47:27;12.38;;;7.05;;
75437;SDS011;64015;49.392;15.582;2022-10-31T05:49:52;11.93;;;7.03;;
75437;SDS011;64015;49.392;15.582;2022-10-31T05:52:18;11.57;;;6.63;;
75437;SDS011;64015;49.392;15.582;2022-10-31T05:54:43;14.85;;;7.32;;
75437;SDS011;64015;49.392;15.582;2022-10-31T05:57:09;16.23;;;8.07;;
75437;SDS011;64015;49.392;15.582;2022-10-31T05:59:35;15.20;;;7.43;;
75437;SDS011;64015;49.392;15.582;2022-10-31T06:02:00;12.77;;;7.63;;
75437;SDS011;64015;49.392;15.582;2022-10-31T06:04:26;12.85;;;7.63;;
75437;SDS011;64015;49.392;15.582;2022-10-31T06:06:51;17.35;;;7.80;;
75437;SDS011;64015;49.392;15.582;2022-10-31T06:09:17;16.55;;;7.00;;
75437;SDS011;64015;49.392;15.582;2022-10-31T06:11:43;12.57;;;7.07;;
75437;SDS011;64015;49.392;15.582;2022-10-31T06:14:14;11.32;;;6.90;;
75437;SDS011;64015;49.392;15.582;2022-10-31T06:16:39;15.18;;;6.78;;
75437;SDS011;64015;49.392;15.582;2022-10-31T06:19:05;14.48;;;9.35;;
75437;SDS011;64015;49.392;15.582;2022-10-31T06:21:30;12.45;;;7.03;;
75437;SDS011;64015;49.392;15.582;2022-10-31T06:23:56;13.18;;;6.90;;
75437;SDS011;64015;49.392;15.582;2022-10-31T06:26:21;15.10;;;7.70;;
75437;SDS011;64015;49.392;15.582;2022-10-31T06:28:47;21.25;;;7.93;;
75437;SDS011;64015;49.392;15.582;2022-10-31T06:31:12;15.57;;;6.88;;
75437;SDS011;64015;49.392;15.582;2022-10-31T06:33:38;15.27;;;6.85;;
75437;SDS011;64015;49.392;15.582;2022-10-31T06:36:06;14.57;;;7.05;;
75437;SDS011;64015;49.392;15.582;2022-10-31T06:38:32;17.92;;;7.13;;
75437;SDS011;64015;49.392;15.582;2022-10-31T06:40:57;10.45;;;5.63;;
75437;SDS011;64015;49.392;15.582;2022-10-31T06:43:23;11.95;;;6.38;;
75437;SDS011;64015;49.392;15.582;2022-10-31T06:45:48;12.05;;;5.65;;
75437;SDS011;64015;49.392;15.582;2022-10-31T06:48:14;14.93;;;6.30;;
75437;SDS011;64015;49.392;15.582;2022-10-31T06:50:39;13.18;;;7.22;;
75437;SDS011;64015;49.392;15.582;2022-10-31T06:53:05;13.02;;;6.35;;
75437;SDS011;64015;49.392;15.582;2022-10-31T06:55:30;16.25;;;6.40;;
75437;SDS011;64015;49.392;15.582;2022-10-31T06:57:57;13.77;;;6.45;;
75437;SDS011;64015;49.392;15.582;2022-10-31T07:00:24;13.73;;;7.15;;
75437;SDS011;64015;49.392;15.582;2022-10-31T07:05:27;11.65;;;5.88;;
75437;SDS011;64015;49.392;15.582;2022-10-31T07:07:54;14.25;;;6.45;;
75437;SDS011;64015;49.392;15.582;2022-10-31T07:10:21;15.63;;;7.72;;
75437;SDS011;64015;49.392;15.582;2022-10-31T07:12:48;17.17;;;7.00;;
75437;SDS011;64015;49.392;15.582;2022-10-31T07:15:13;19.13;;;9.60;;
75437;SDS011;64015;49.392;15.582;2022-10-31T07:17:39;19.52;;;9.38;;
75437;SDS011;64015;49.392;15.582;2022-10-31T07:20:05;17.23;;;9.45;;
75437;SDS011;64015;49.392;15.582;2022-10-31T07:22:34;16.88;;;9.48;;
75437;SDS011;64015;49.392;15.582;2022-10-31T07:25:01;22.92;;;9.60;;
75437;SDS011;64015;49.392;15.582;2022-10-31T07:27:27;18.63;;;9.23;;
75437;SDS011;64015;49.392;15.582;2022-10-31T07:29:53;15.02;;;8.02;;
75437;SDS011;64015;49.392;15.582;2022-10-31T07:32:18;17.90;;;8.30;;
75437;SDS011;64015;49.392;15.582;2022-10-31T07:34:44;16.75;;;8.25;;
75437;SDS011;64015;49.392;15.582;2022-10-31T07:37:10;14.52;;;8.15;;
75437;SDS011;64015;49.392;15.582;2022-10-31T07:39:35;15.18;;;8.07;;
75437;SDS011;64015;49.392;15.582;2022-10-31T07:42:01;14.88;;;8.52;;
75437;SDS011;64015;49.392;15.582;2022-10-31T07:44:26;17.35;;;8.82;;
75437;SDS011;64015;49.392;15.582;2022-10-31T07:46:52;16.08;;;7.93;;
75437;SDS011;64015;49.392;15.582;2022-10-31T07:49:18;15.30;;;7.85;;
75437;SDS011;64015;49.392;15.582;2022-10-31T07:51:43;14.40;;;7.60;;
75437;SDS011;64015;49.392;15.582;2022-10-31T07:55:11;17.73;;;8.40;;
75437;SDS011;64015;49.392;15.582;2022-10-31T07:57:08;14.70;;;7.95;;
75437;SDS011;64015;49.392;15.582;2022-10-31T07:59:34;13.55;;;8.23;;
75437;SDS011;64015;49.392;15.582;2022-10-31T08:02:00;16.40;;;6.85;;
75437;SDS011;64015;49.392;15.582;2022-10-31T08:04:25;18.77;;;7.38;;
75437;SDS011;64015;49.392;15.582;2022-10-31T08:06:51;15.68;;;7.13;;
75437;SDS011;64015;49.392;15.582;2022-10-31T08:09:16;11.20;;;6.45;;
75437;SDS011;64015;49.392;15.582;2022-10-31T08:11:42;13.20;;;7.07;;
75437;SDS011;64015;49.392;15.582;2022-10-31T08:14:08;11.88;;;6.47;;
75437;SDS011;64015;49.392;15.582;2022-10-31T08:16:33;13.68;;;6.22;;
75437;SDS011;64015;49.392;15.582;2022-10-31T08:18:59;16.13;;;6.82;;
75437;SDS011;64015;49.392;15.582;2022-10-31T08:21:25;14.82;;;7.35;;
75437;SDS011;64015;49.392;15.582;2022-10-31T08:23:50;14.82;;;6.93;;
75437;SDS011;64015;49.392;15.582;2022-10-31T08:26:16;11.82;;;6.72;;
75437;SDS011;64015;49.392;15.582;2022-10-31T08:28:41;16.27;;;7.32;;
75437;SDS011;64015;49.392;15.582;2022-10-31T08:31:07;12.20;;;6.90;;
75437;SDS011;64015;49.392;15.582;2022-10-31T08:33:34;14.90;;;7.97;;
75437;SDS011;64015;49.392;15.582;2022-10-31T08:36:00;15.90;;;6.65;;
75437;SDS011;64015;49.392;15.582;2022-10-31T08:38:25;12.25;;;6.22;;
75437;SDS011;64015;49.392;15.582;2022-10-31T08:40:51;12.27;;;6.65;;
75437;SDS011;64015;49.392;15.582;2022-10-31T08:43:24;12.77;;;6.13;;
75437;SDS011;64015;49.392;15.582;2022-10-31T08:45:49;15.35;;;7.63;;
75437;SDS011;64015;49.392;15.582;2022-10-31T08:48:16;14.07;;;6.05;;
75437;SDS011;64015;49.392;15.582;2022-10-31T08:50:43;13.13;;;6.03;;
75437;SDS011;64015;49.392;15.582;2022-10-31T08:53:14;12.57;;;6.35;;
75437;SDS011;64015;49.392;15.582;2022-10-31T08:55:41;12.82;;;7.45;;
75437;SDS011;64015;49.392;15.582;2022-10-31T08:58:12;12.18;;;5.57;;
75437;SDS011;64015;49.392;15.582;2022-10-31T09:00:42;13.80;;;5.90;;
75437;SDS011;64015;49.392;15.582;2022-10-31T09:03:12;13.43;;;5.75;;
75437;SDS011;64015;49.392;15.582;2022-10-31T09:05:39;14.10;;;5.40;;
75437;SDS011;64015;49.392;15.582;2022-10-31T09:08:05;15.70;;;6.32;;
75437;SDS011;64015;49.392;15.582;2022-10-31T09:10:32;15.95;;;6.65;;
75437;SDS011;64015;49.392;15.582;2022-10-31T09:13:00;16.40;;;6.93;;
75437;SDS011;64015;49.392;15.582;2022-10-31T09:15:34;14.02;;;6.20;;
75437;SDS011;64015;49.392;15.582;2022-10-31T09:18:01;13.50;;;6.88;;
75437;SDS011;64015;49.392;15.582;2022-10-31T09:20:27;13.88;;;7.20;;
75437;SDS011;64015;49.392;15.582;2022-10-31T09:25:23;13.50;;;7.35;;
75437;SDS011;64015;49.392;15.582;2022-10-31T09:27:48;15.20;;;8.70;;
75437;SDS011;64015;49.392;15.582;2022-10-31T09:30:14;15.05;;;8.82;;
75437;SDS011;64015;49.392;15.582;2022-10-31T09:32:39;20.98;;;9.70;;
75437;SDS011;64015;49.392;15.582;2022-10-31T09:35:05;20.05;;;9.23;;
75437;SDS011;64015;49.392;15.582;2022-10-31T09:37:31;18.40;;;8.45;;
75437;SDS011;64015;49.392;15.582;2022-10-31T09:39:56;20.42;;;9.60;;
75437;SDS011;64015;49.392;15.582;2022-10-31T09:51:41;15.10;;;8.43;;
75437;SDS011;64015;49.392;15.582;2022-10-31T09:56:27;90.47;;;38.13;;
75437;SDS011;64015;49.392;15.582;2022-10-31T10:01:39;20.13;;;8.25;;
75437;SDS011;64015;49.392;15.582;2022-10-31T10:04:19;37.50;;;16.92;;
75437;SDS011;64015;49.392;15.582;2022-10-31T10:07:12;83.07;;;34.28;;
75437;SDS011;64015;49.392;15.582;2022-10-31T10:09:44;78.65;;;33.30;;
75437;SDS011;64015;49.392;15.582;2022-10-31T10:14:49;79.53;;;34.58;;
75437;SDS011;64015;49.392;15.582;2022-10-31T10:17:53;195.00;;;86.40;;
75437;SDS011;64015;49.392;15.582;2022-10-31T10:23:06;85.25;;;38.10;;
75437;SDS011;64015;49.392;15.582;2022-10-31T10:33:33;96.93;;;44.22;;
75437;SDS011;64015;49.392;15.582;2022-10-31T10:36:04;186.27;;;86.47;;
75437;SDS011;64015;49.392;15.582;2022-10-31T10:38:35;159.45;;;75.10;;
75437;SDS011;64015;49.392;15.582;2022-10-31T10:41:12;246.80;;;121.63;;
75437;SDS011;64015;49.392;15.582;2022-10-31T10:43:41;263.20;;;126.03;;
75437;SDS011;64015;49.392;15.582;2022-10-31T10:51:59;119.63;;;55.22;;
75437;SDS011;64015;49.392;15.582;2022-10-31T10:54:46;114.47;;;52.10;;
75437;SDS011;64015;49.392;15.582;2022-10-31T11:00:20;95.57;;;44.33;;
75437;SDS011;64015;49.392;15.582;2022-10-31T11:02:55;105.85;;;50.95;;
75437;SDS011;64015;49.392;15.582;2022-10-31T11:07:46;24.40;;;11.17;;
75437;SDS011;64015;49.392;15.582;2022-10-31T11:10:13;73.15;;;33.30;;
75437;SDS011;64015;49.392;15.582;2022-10-31T11:12:39;105.03;;;49.28;;
75437;SDS011;64015;49.392;15.582;2022-10-31T11:15:27;65.35;;;30.17;;
75437;SDS011;64015;49.392;15.582;2022-10-31T11:17:54;39.88;;;18.90;;
75437;SDS011;64015;49.392;15.582;2022-10-31T11:20:28;93.05;;;43.45;;
75437;SDS011;64015;49.392;15.582;2022-10-31T11:23:01;59.15;;;27.83;;
75437;SDS011;64015;49.392;15.582;2022-10-31T11:25:28;66.50;;;31.63;;
75437;SDS011;64015;49.392;15.582;2022-10-31T11:30:25;53.20;;;25.40;;
75437;SDS011;64015;49.392;15.582;2022-10-31T11:35:18;36.83;;;17.50;;
75437;SDS011;64015;49.392;15.582;2022-10-31T11:37:46;46.47;;;20.80;;
75437;SDS011;64015;49.392;15.582;2022-10-31T11:40:19;61.15;;;29.02;;
75437;SDS011;64015;49.392;15.582;2022-10-31T11:42:47;33.85;;;16.80;;
75437;SDS011;64015;49.392;15.582;2022-10-31T11:45:15;39.15;;;19.25;;
75437;SDS011;64015;49.392;15.582;2022-10-31T11:47:49;41.88;;;21.27;;
75437;SDS011;64015;49.392;15.582;2022-10-31T11:50:27;19.92;;;9.68;;
75437;SDS011;64015;49.392;15.582;2022-10-31T11:52:58;40.38;;;19.05;;
75437;SDS011;64015;49.392;15.582;2022-10-31T11:55:36;29.60;;;14.32;;
75437;SDS011;64015;49.392;15.582;2022-10-31T11:58:03;23.98;;;11.20;;
75437;SDS011;64015;49.392;15.582;2022-10-31T12:00:33;23.92;;;12.90;;
75437;SDS011;64015;49.392;15.582;2022-10-31T12:03:26;18.98;;;10.55;;
75437;SDS011;64015;49.392;15.582;2022-10-31T12:06:03;18.88;;;9.38;;
75437;SDS011;64015;49.392;15.582;2022-10-31T12:08:35;24.63;;;11.43;;
75437;SDS011;64015;49.392;15.582;2022-10-31T12:14:12;21.00;;;11.45;;
75437;SDS011;64015;49.392;15.582;2022-10-31T12:17:16;15.30;;;7.72;;
75437;SDS011;64015;49.392;15.582;2022-10-31T12:22:50;16.85;;;8.63;;
75437;SDS011;64015;49.392;15.582;2022-10-31T12:28:14;14.68;;;7.18;;
75437;SDS011;64015;49.392;15.582;2022-10-31T12:36:31;13.05;;;7.47;;
75437;SDS011;64015;49.392;15.582;2022-10-31T12:39:12;11.75;;;6.28;;
75437;SDS011;64015;49.392;15.582;2022-10-31T12:41:52;12.52;;;6.70;;
75437;SDS011;64015;49.392;15.582;2022-10-31T12:44:30;15.90;;;6.45;;
75437;SDS011;64015;49.392;15.582;2022-10-31T12:53:01;13.27;;;5.70;;
75437;SDS011;64015;49.392;15.582;2022-10-31T12:58:26;11.95;;;5.47;;
75437;SDS011;64015;49.392;15.582;2022-10-31T13:01:01;11.23;;;6.05;;
75437;SDS011;64015;49.392;15.582;2022-10-31T13:03:38;12.15;;;5.85;;
75437;SDS011;64015;49.392;15.582;2022-10-31T13:06:14;11.38;;;5.55;;
75437;SDS011;64015;49.392;15.582;2022-10-31T13:08:45;12.40;;;5.88;;
75437;SDS011;64015;49.392;15.582;2022-10-31T13:11:17;13.15;;;6.38;;
75437;SDS011;64015;49.392;15.582;2022-10-31T13:16:29;10.45;;;5.95;;
75437;SDS011;64015;49.392;15.582;2022-10-31T13:19:01;10.70;;;5.25;;
75437;SDS011;64015;49.392;15.582;2022-10-31T13:27:23;9.93;;;5.40;;
75437;SDS011;64015;49.392;15.582;2022-10-31T13:30:03;9.30;;;5.28;;
75437;SDS011;64015;49.392;15.582;2022-10-31T13:32:41;9.98;;;5.78;;
75437;SDS011;64015;49.392;15.582;2022-10-31T13:35:14;9.35;;;5.40;;
75437;SDS011;64015;49.392;15.582;2022-10-31T13:37:49;12.68;;;6.22;;
75437;SDS011;64015;49.392;15.582;2022-10-31T13:40:42;10.88;;;6.40;;
75437;SDS011;64015;49.392;15.582;2022-10-31T13:43:26;14.02;;;6.88;;
75437;SDS011;64015;49.392;15.582;2022-10-31T13:45:56;8.45;;;5.65;;
75437;SDS011;64015;49.392;15.582;2022-10-31T13:51:05;9.30;;;5.18;;
75437;SDS011;64015;49.392;15.582;2022-10-31T14:04:02;9.55;;;5.57;;
75437;SDS011;64015;49.392;15.582;2022-10-31T14:06:34;9.20;;;5.60;;
75437;SDS011;64015;49.392;15.582;2022-10-31T14:09:02;10.52;;;5.38;;
75437;SDS011;64015;49.392;15.582;2022-10-31T14:13:55;10.40;;;4.80;;
75437;SDS011;64015;49.392;15.582;2022-10-31T14:16:24;8.27;;;4.47;;
75437;SDS011;64015;49.392;15.582;2022-10-31T14:19:01;8.48;;;5.00;;
75437;SDS011;64015;49.392;15.582;2022-10-31T14:21:37;7.57;;;5.35;;
75437;SDS011;64015;49.392;15.582;2022-10-31T14:31:43;11.50;;;5.43;;
75437;SDS011;64015;49.392;15.582;2022-10-31T14:34:22;9.88;;;4.70;;
75437;SDS011;64015;49.392;15.582;2022-10-31T14:40:10;12.93;;;5.55;;
75437;SDS011;64015;49.392;15.582;2022-10-31T14:42:55;10.00;;;5.13;;
75437;SDS011;64015;49.392;15.582;2022-10-31T14:45:45;8.73;;;4.40;;
75437;SDS011;64015;49.392;15.582;2022-10-31T14:48:24;9.88;;;4.70;;
75437;SDS011;64015;49.392;15.582;2022-10-31T14:53:39;12.15;;;6.60;;
75437;SDS011;64015;49.392;15.582;2022-10-31T14:56:26;11.50;;;5.32;;
75437;SDS011;64015;49.392;15.582;2022-10-31T14:58:57;10.88;;;5.15;;
75437;SDS011;64015;49.392;15.582;2022-10-31T15:01:31;17.33;;;6.70;;
75437;SDS011;64015;49.392;15.582;2022-10-31T15:04:19;14.00;;;7.25;;
75437;SDS011;64015;49.392;15.582;2022-10-31T15:06:51;19.08;;;7.25;;
75437;SDS011;64015;49.392;15.582;2022-10-31T15:09:34;13.18;;;7.55;;
75437;SDS011;64015;49.392;15.582;2022-10-31T15:12:16;16.05;;;7.53;;
75437;SDS011;64015;49.392;15.582;2022-10-31T15:14:52;15.18;;;7.53;;
75437;SDS011;64015;49.392;15.582;2022-10-31T15:17:19;15.20;;;6.90;;
75437;SDS011;64015;49.392;15.582;2022-10-31T15:20:03;17.33;;;8.20;;
75437;SDS011;64015;49.392;15.582;2022-10-31T15:22:29;14.35;;;7.63;;
75437;SDS011;64015;49.392;15.582;2022-10-31T15:24:56;18.73;;;8.68;;
75437;SDS011;64015;49.392;15.582;2022-10-31T15:27:23;16.70;;;8.30;;
75437;SDS011;64015;49.392;15.582;2022-10-31T15:29:50;18.70;;;8.32;;
75437;SDS011;64015;49.392;15.582;2022-10-31T15:32:22;19.60;;;8.95;;
75437;SDS011;64015;49.392;15.582;2022-10-31T15:34:51;18.30;;;9.75;;
75437;SDS011;64015;49.392;15.582;2022-10-31T15:37:18;19.88;;;9.95;;
75437;SDS011;64015;49.392;15.582;2022-10-31T15:39:46;20.50;;;11.35;;
75437;SDS011;64015;49.392;15.582;2022-10-31T15:42:26;21.27;;;12.27;;
75437;SDS011;64015;49.392;15.582;2022-10-31T15:45:05;36.10;;;15.57;;
75437;SDS011;64015;49.392;15.582;2022-10-31T15:47:45;30.80;;;16.15;;
75437;SDS011;64015;49.392;15.582;2022-10-31T15:53:22;28.77;;;15.80;;
75437;SDS011;64015;49.392;15.582;2022-10-31T15:55:57;27.38;;;14.75;;
75437;SDS011;64015;49.392;15.582;2022-10-31T15:58:26;24.55;;;13.07;;
75437;SDS011;64015;49.392;15.582;2022-10-31T16:00:56;29.23;;;13.75;;
75437;SDS011;64015;49.392;15.582;2022-10-31T16:03:26;27.05;;;13.45;;
75437;SDS011;64015;49.392;15.582;2022-10-31T16:05:54;33.28;;;14.63;;
75437;SDS011;64015;49.392;15.582;2022-10-31T16:10:53;23.83;;;11.45;;
75437;SDS011;64015;49.392;15.582;2022-10-31T16:15:50;22.20;;;10.68;;
75437;SDS011;64015;49.392;15.582;2022-10-31T16:18:20;22.52;;;11.55;;
75437;SDS011;64015;49.392;15.582;2022-10-31T16:20:52;18.70;;;9.50;;
75437;SDS011;64015;49.392;15.582;2022-10-31T16:23:21;19.20;;;10.63;;
75437;SDS011;64015;49.392;15.582;2022-10-31T16:25:50;21.95;;;10.40;;
75437;SDS011;64015;49.392;15.582;2022-10-31T16:28:18;23.38;;;10.65;;
75437;SDS011;64015;49.392;15.582;2022-10-31T16:30:47;23.30;;;9.98;;
75437;SDS011;64015;49.392;15.582;2022-10-31T16:35:59;18.70;;;9.38;;
75437;SDS011;64015;49.392;15.582;2022-10-31T16:38:28;16.08;;;9.45;;
75437;SDS011;64015;49.392;15.582;2022-10-31T16:40:53;17.73;;;9.65;;
75437;SDS011;64015;49.392;15.582;2022-10-31T16:43:19;23.75;;;11.43;;
75437;SDS011;64015;49.392;15.582;2022-10-31T16:45:50;17.80;;;9.27;;
75437;SDS011;64015;49.392;15.582;2022-10-31T16:48:20;16.80;;;9.13;;
75437;SDS011;64015;49.392;15.582;2022-10-31T16:50:48;17.60;;;9.90;;
75437;SDS011;64015;49.392;15.582;2022-10-31T16:53:15;18.92;;;8.82;;
75437;SDS011;64015;49.392;15.582;2022-10-31T16:55:46;15.32;;;8.50;;
75437;SDS011;64015;49.392;15.582;2022-10-31T16:58:25;15.27;;;8.35;;
75437;SDS011;64015;49.392;15.582;2022-10-31T17:00:52;13.88;;;7.43;;
75437;SDS011;64015;49.392;15.582;2022-10-31T17:03:18;14.43;;;7.38;;
75437;SDS011;64015;49.392;15.582;2022-10-31T17:05:44;14.20;;;7.47;;
75437;SDS011;64015;49.392;15.582;2022-10-31T17:08:10;12.77;;;7.10;;
75437;SDS011;64015;49.392;15.582;2022-10-31T17:10:36;12.27;;;7.43;;